Terminal Aerodrome Forecast
Issued by NWS

Current Version | Previous Version | Text Only | Print | Product List | Glossary On
Versions: 1 2 3 4 5 6 7 8 9 10 11 12 13 14 15 16 17 18 19 20 21 22 23 24 25 26 27 28 29 30 31 32 33 34 35 36 37 38 39 40 41 42 43 44 45 46 47 48 49
000
FTUS41 KOKX 210949 AAM
TAFSWF
TAF AMD
KSWF 210949Z 2110/2212 VRB03KT 1SM BR OVC003
      TEMPO 2110/2113 1/2SM FG
     FM211500 21005KT 4SM BR OVC006
     FM211700 23008KT P6SM BKN015
     FM211900 23008KT P6SM SCT035 BKN100
     FM212300 21004KT P6SM SCT040 BKN100
     FM220500 VRB03KT 5SM BR OVC015
     AMD NOT SKED=

USA.gov is the U.S. government's official web portal to all federal, state and local government web resources and services.